Time;durP1;ratioP1;P1;durP2;ratioP2;P2;SDS_P1;SDS_P2;PMS_P1;PMS_P2;Temp;Humidity;BMP_temperature;BMP_pressure;BME280_temperature;BME280_humidity;BME280_pressure;Samples;Min_cycle;Max_cycle;Signal;HPM_P1;HPM_P2
2023/06/02 00:03:03;;;;;;;3.70;1.10;;;;;;;;;;10477224;28;20222;-75
2023/06/02 00:08:05;;;;;;;2.65;1.10;;;;;;;;;;10447811;28;20218;-75
2023/06/02 00:13:07;;;;;;;3.83;1.65;;;;;;;;;;10455216;28;20309;-76
2023/06/02 00:18:08;;;;;;;4.13;1.20;;;;;;;;;;10433861;28;20280;-76
2023/06/02 00:23:09;;;;;;;2.28;1.25;;;;;;;;;;10456711;28;20301;-77
2023/06/02 00:28:10;;;;;;;3.80;1.23;;;;;;;;;;10452535;28;20308;-76
2023/06/02 00:33:11;;;;;;;6.07;1.50;;;;;;;;;;10445127;28;20333;-75
2023/06/02 00:38:12;;;;;;;3.75;1.17;;;;;;;;;;10462107;28;20255;-74
2023/06/02 00:43:13;;;;;;;3.53;1.08;;;;;;;;;;10461643;28;20235;-75
2023/06/02 00:48:14;;;;;;;6.47;1.27;;;;;;;;;;10461394;28;20237;-75
2023/06/02 00:53:16;;;;;;;2.65;0.90;;;;;;;;;;10460473;28;20225;-75
2023/06/02 00:58:17;;;;;;;2.33;1.52;;;;;;;;;;10452180;28;20221;-77
2023/06/02 01:03:21;;;;;;;2.90;1.08;;;;;;;;;;10462698;28;20210;-76
2023/06/02 01:08:22;;;;;;;9.27;1.58;;;;;;;;;;10462281;28;20224;-76
2023/06/02 01:13:23;;;;;;;3.55;0.93;;;;;;;;;;10471918;28;20581;-74
2023/06/02 01:18:29;;;;;;;4.22;1.40;;;;;;;;;;10458475;28;20603;-74
2023/06/02 01:23:36;;;;;;;3.13;1.08;;;;;;;;;;10452393;28;20755;-74
2023/06/02 01:28:40;;;;;;;2.53;1.10;;;;;;;;;;10479166;28;20824;-74
2023/06/02 01:33:57;;;;;;;8.27;1.27;;;;;;;;;;10465772;28;20202;-76
2023/06/02 01:39:00;;;;;;;4.13;1.58;;;;;;;;;;10475506;28;20224;-75
2023/06/02 01:44:02;;;;;;;2.58;1.45;;;;;;;;;;10447852;28;20296;-74
2023/06/02 01:49:03;;;;;;;1.67;1.20;;;;;;;;;;10461807;28;21115;-74
2023/06/02 01:54:04;;;;;;;2.78;1.30;;;;;;;;;;10450738;28;20214;-75
2023/06/02 01:59:05;;;;;;;6.00;1.45;;;;;;;;;;10448792;28;20306;-75
2023/06/02 02:04:06;;;;;;;2.97;0.95;;;;;;;;;;10460242;28;20677;-76
2023/06/02 02:09:07;;;;;;;9.27;1.30;;;;;;;;;;10475303;28;20301;-74
2023/06/02 02:14:08;;;;;;;2.78;1.20;;;;;;;;;;10453282;28;20251;-76
2023/06/02 02:19:12;;;;;;;4.18;1.40;;;;;;;;;;10484589;28;20334;-73
2023/06/02 02:24:13;;;;;;;5.07;1.45;;;;;;;;;;10450357;28;20210;-74
2023/06/02 02:29:14;;;;;;;5.45;1.30;;;;;;;;;;10464171;28;20256;-75
2023/06/02 02:34:15;;;;;;;4.15;1.17;;;;;;;;;;10461125;28;20267;-75
2023/06/02 02:39:17;;;;;;;3.88;0.98;;;;;;;;;;10446315;28;20271;-74
2023/06/02 02:44:18;;;;;;;5.43;1.83;;;;;;;;;;10454698;28;20661;-73
2023/06/02 02:49:19;;;;;;;3.47;1.45;;;;;;;;;;10458910;28;20234;-75
2023/06/02 02:54:21;;;;;;;2.28;1.17;;;;;;;;;;10465075;28;20696;-74
2023/06/02 02:59:22;;;;;;;10.23;1.60;;;;;;;;;;10467639;28;21027;-75
2023/06/02 03:04:24;;;;;;;4.03;0.98;;;;;;;;;;10447939;28;20789;-75
2023/06/02 03:09:27;;;;;;;3.92;1.38;;;;;;;;;;10465608;28;20312;-74
2023/06/02 03:14:30;;;;;;;9.80;1.30;;;;;;;;;;10462567;28;20218;-75
2023/06/02 03:19:35;;;;;;;6.60;0.82;;;;;;;;;;10456163;28;20673;-75
2023/06/02 03:24:36;;;;;;;4.75;1.33;;;;;;;;;;10467488;28;20658;-74
2023/06/02 03:29:39;;;;;;;6.45;1.38;;;;;;;;;;10465576;28;20222;-75
2023/06/02 03:34:40;;;;;;;5.80;1.60;;;;;;;;;;10454899;28;20268;-75
2023/06/02 03:39:42;;;;;;;4.40;1.42;;;;;;;;;;10454115;28;20259;-75
2023/06/02 03:44:43;;;;;;;4.93;1.30;;;;;;;;;;10457295;28;20224;-74
2023/06/02 03:49:45;;;;;;;1.63;1.15;;;;;;;;;;10464122;28;20813;-75
2023/06/02 03:54:48;;;;;;;5.85;1.02;;;;;;;;;;10461735;28;20218;-74
2023/06/02 03:59:50;;;;;;;4.28;1.13;;;;;;;;;;10460532;28;20218;-75
2023/06/02 04:04:51;;;;;;;2.70;0.93;;;;;;;;;;10433395;28;20300;-75
2023/06/02 04:09:53;;;;;;;6.43;1.33;;;;;;;;;;10438648;28;20218;-75
2023/06/02 04:14:54;;;;;;;3.25;0.95;;;;;;;;;;10427573;28;21627;-75
2023/06/02 04:19:57;;;;;;;3.03;1.17;;;;;;;;;;10452751;28;20241;-75
2023/06/02 04:24:59;;;;;;;7.72;1.33;;;;;;;;;;10467172;28;20811;-75
2023/06/02 04:30:01;;;;;;;5.35;1.50;;;;;;;;;;10421955;28;20259;-75
2023/06/02 04:35:03;;;;;;;3.90;1.00;;;;;;;;;;10436849;28;20223;-75
2023/06/02 04:40:05;;;;;;;5.45;1.30;;;;;;;;;;10427108;28;20309;-75
2023/06/02 04:45:11;;;;;;;7.45;1.42;;;;;;;;;;10425757;28;20191;-75
2023/06/02 04:50:13;;;;;;;3.20;2.33;;;;;;;;;;10459817;28;20227;-76
2023/06/02 04:55:15;;;;;;;9.88;1.83;;;;;;;;;;10448698;28;20217;-75
2023/06/02 05:00:18;;;;;;;4.70;1.38;;;;;;;;;;10458319;28;20210;-76
2023/06/02 05:05:19;;;;;;;9.00;2.05;;;;;;;;;;10454595;28;20194;-77
2023/06/02 05:10:21;;;;;;;8.25;1.67;;;;;;;;;;10438929;28;20683;-75
2023/06/02 05:15:22;;;;;;;7.53;2.17;;;;;;;;;;10455690;28;20226;-77
2023/06/02 05:20:24;;;;;;;8.32;1.88;;;;;;;;;;10459161;28;20214;-76
2023/06/02 05:25:25;;;;;;;3.42;1.58;;;;;;;;;;10428599;28;21001;-76
2023/06/02 05:30:27;;;;;;;9.73;1.67;;;;;;;;;;10445905;28;20240;-77
2023/06/02 05:35:28;;;;;;;9.32;1.95;;;;;;;;;;10449073;28;20434;-77
2023/06/02 05:40:30;;;;;;;5.75;1.88;;;;;;;;;;10447548;28;20210;-75
2023/06/02 05:45:31;;;;;;;5.07;1.63;;;;;;;;;;10446325;28;20297;-76
2023/06/02 05:50:33;;;;;;;7.35;1.80;;;;;;;;;;10450512;28;20800;-75
2023/06/02 05:55:34;;;;;;;10.23;1.67;;;;;;;;;;10475568;28;20229;-75
2023/06/02 06:00:35;;;;;;;5.75;1.17;;;;;;;;;;10466874;28;20302;-78
2023/06/02 06:05:37;;;;;;;4.82;1.70;;;;;;;;;;10462304;28;20547;-76
2023/06/02 06:10:38;;;;;;;3.75;1.15;;;;;;;;;;10453656;28;20218;-76
2023/06/02 06:15:39;;;;;;;5.03;1.95;;;;;;;;;;10457608;28;20214;-76
2023/06/02 06:20:43;;;;;;;11.20;1.83;;;;;;;;;;10456376;28;20228;-77
2023/06/02 06:25:45;;;;;;;5.78;1.63;;;;;;;;;;10456034;28;20240;-77
2023/06/02 06:30:46;;;;;;;8.68;2.55;;;;;;;;;;10465389;28;20913;-77
2023/06/02 06:35:47;;;;;;;7.13;2.28;;;;;;;;;;10474919;28;20714;-77
2023/06/02 06:40:49;;;;;;;6.15;1.80;;;;;;;;;;10487421;28;20384;-77
2023/06/02 06:45:50;;;;;;;6.93;2.80;;;;;;;;;;10483235;28;20226;-76
2023/06/02 06:50:52;;;;;;;10.77;2.85;;;;;;;;;;10454353;28;20218;-77
2023/06/02 06:55:53;;;;;;;10.40;2.97;;;;;;;;;;10456548;28;20721;-76
2023/06/02 07:00:54;;;;;;;7.63;2.75;;;;;;;;;;10453671;28;20221;-76
2023/06/02 07:05:55;;;;;;;12.90;3.35;;;;;;;;;;10454947;28;20604;-76
2023/06/02 07:10:56;;;;;;;3.67;3.15;;;;;;;;;;10442346;28;20228;-77
2023/06/02 07:15:58;;;;;;;12.48;3.33;;;;;;;;;;10448904;28;20582;-77
2023/06/02 07:20:59;;;;;;;9.65;4.07;;;;;;;;;;10437031;28;20213;-76
2023/06/02 07:26:00;;;;;;;5.90;3.97;;;;;;;;;;10453470;28;20702;-77
2023/06/02 07:31:01;;;;;;;7.30;3.83;;;;;;;;;;10445463;28;20222;-77
2023/06/02 07:36:02;;;;;;;5.35;2.83;;;;;;;;;;10456437;28;20647;-77
2023/06/02 07:41:03;;;;;;;9.43;3.17;;;;;;;;;;10444822;28;20210;-76
2023/06/02 07:46:05;;;;;;;7.28;2.75;;;;;;;;;;10450983;28;20216;-78
2023/06/02 07:51:06;;;;;;;5.65;2.95;;;;;;;;;;10446499;28;20226;-77
2023/06/02 07:56:32;;;;;;;6.88;2.60;;;;;;;;;;10455187;28;20226;-77
2023/06/02 08:02:23;;;;;;;7.60;2.47;;;;;;;;;;10460638;28;20217;-77
2023/06/02 08:07:24;;;;;;;5.40;2.45;;;;;;;;;;10454004;28;20210;-76
2023/06/02 08:12:26;;;;;;;5.63;3.13;;;;;;;;;;10463589;28;20233;-77
2023/06/02 08:17:30;;;;;;;11.10;2.15;;;;;;;;;;10458762;28;20699;-77
2023/06/02 08:22:32;;;;;;;5.75;1.88;;;;;;;;;;10454317;28;20307;-77
2023/06/02 08:27:36;;;;;;;8.65;2.53;;;;;;;;;;10459531;28;20260;-77
2023/06/02 08:32:37;;;;;;;6.35;1.98;;;;;;;;;;10478318;28;21036;-78
2023/06/02 08:37:38;;;;;;;3.47;1.45;;;;;;;;;;10466510;28;20217;-77
2023/06/02 08:42:40;;;;;;;5.75;1.70;;;;;;;;;;10478177;28;20202;-77
2023/06/02 08:47:43;;;;;;;5.10;2.60;;;;;;;;;;10461503;28;20283;-77
2023/06/02 08:52:45;;;;;;;8.15;2.58;;;;;;;;;;10449850;28;20365;-77
2023/06/02 08:57:46;;;;;;;3.10;1.80;;;;;;;;;;10470816;28;20253;-77
2023/06/02 09:02:47;;;;;;;4.95;2.22;;;;;;;;;;10460087;28;20869;-77
2023/06/02 09:08:05;;;;;;;6.22;1.63;;;;;;;;;;10452715;28;20249;-77
2023/06/02 09:13:07;;;;;;;7.85;2.20;;;;;;;;;;10466531;28;20258;-76
2023/06/02 09:18:10;;;;;;;6.40;1.88;;;;;;;;;;10463243;28;20214;-77
2023/06/02 09:23:11;;;;;;;2.08;1.40;;;;;;;;;;10476363;28;20625;-77
2023/06/02 09:28:13;;;;;;;7.88;1.67;;;;;;;;;;10483836;28;20268;-77
2023/06/02 09:33:17;;;;;;;5.78;1.70;;;;;;;;;;10468512;28;20206;-77
2023/06/02 09:38:18;;;;;;;6.60;1.85;;;;;;;;;;10463134;28;20313;-77
2023/06/02 09:43:30;;;;;;;6.45;1.58;;;;;;;;;;10466156;28;20191;-77
2023/06/02 09:48:31;;;;;;;4.57;2.15;;;;;;;;;;10464597;28;20214;-77
2023/06/02 09:53:32;;;;;;;5.53;1.40;;;;;;;;;;10464887;28;20182;-77
2023/06/02 09:58:54;;;;;;;5.22;1.77;;;;;;;;;;10464819;28;20230;-77
2023/06/02 10:03:55;;;;;;;2.80;1.35;;;;;;;;;;10484709;28;20193;-76
2023/06/02 10:09:06;;;;;;;6.55;1.88;;;;;;;;;;10469771;28;20244;-77
2023/06/02 10:14:18;;;;;;;4.35;1.98;;;;;;;;;;10469133;28;20190;-78
2023/06/02 10:19:19;;;;;;;9.52;1.73;;;;;;;;;;10469046;28;20202;-78
2023/06/02 10:24:42;;;;;;;3.80;1.52;;;;;;;;;;10472123;28;20726;-78
2023/06/02 10:29:45;;;;;;;3.45;1.45;;;;;;;;;;10471631;28;20327;-78
2023/06/02 10:34:50;;;;;;;2.40;1.20;;;;;;;;;;10470311;28;20215;-78
2023/06/02 10:39:52;;;;;;;9.52;1.10;;;;;;;;;;10469854;28;20329;-81
2023/06/02 10:51:50;;;;;;;2.88;1.02;;;;;;;;;;10422389;28;20218;-80
2023/06/02 10:56:55;;;;;;;3.47;1.10;;;;;;;;;;10418508;28;20217;-79
2023/06/02 11:01:56;;;;;;;3.03;1.20;;;;;;;;;;10423935;28;20218;-79
2023/06/02 11:07:12;;;;;;;2.88;0.90;;;;;;;;;;10453789;28;20214;-80
2023/06/02 11:12:13;;;;;;;2.13;1.58;;;;;;;;;;10457897;28;20213;-79
2023/06/02 11:17:28;;;;;;;2.45;0.98;;;;;;;;;;10455026;28;21262;-79
2023/06/02 11:22:30;;;;;;;4.68;1.23;;;;;;;;;;10459136;28;20222;-82
2023/06/02 11:27:41;;;;;;;4.60;1.60;;;;;;;;;;10428394;28;20553;-82
2023/06/02 11:32:43;;;;;;;3.88;1.50;;;;;;;;;;10464953;28;20218;-83
2023/06/02 11:37:59;;;;;;;2.38;1.40;;;;;;;;;;10446590;28;20237;-83
2023/06/02 11:43:00;;;;;;;2.20;1.05;;;;;;;;;;10464536;28;20218;-83
2023/06/02 11:48:05;;;;;;;1.83;1.60;;;;;;;;;;10444087;28;20246;-81
2023/06/02 11:53:15;;;;;;;0.90;0.90;;;;;;;;;;10444658;28;20325;-82
2023/06/02 11:58:17;;;;;;;3.20;1.10;;;;;;;;;;10448213;28;20229;-82
2023/06/02 12:03:19;;;;;;;6.45;1.10;;;;;;;;;;10427990;28;20217;-84
2023/06/02 12:08:20;;;;;;;1.48;0.98;;;;;;;;;;10468321;28;20240;-84
2023/06/02 12:13:31;;;;;;;5.93;1.30;;;;;;;;;;10451723;28;20214;-80
2023/06/02 12:18:33;;;;;;;3.30;1.50;;;;;;;;;;10425933;28;20299;-81
2023/06/02 12:23:44;;;;;;;4.78;1.35;;;;;;;;;;10454746;28;20210;-80
2023/06/02 12:28:46;;;;;;;3.38;1.58;;;;;;;;;;10431157;28;20263;-82
2023/06/02 12:33:47;;;;;;;5.63;1.35;;;;;;;;;;10434702;28;20234;-81
2023/06/02 12:38:48;;;;;;;1.60;1.25;;;;;;;;;;10462977;28;20234;-81
2023/06/02 12:43:49;;;;;;;2.85;1.13;;;;;;;;;;10461772;28;20695;-81
2023/06/02 12:48:50;;;;;;;2.88;1.30;;;;;;;;;;10445598;28;20233;-81
2023/06/02 12:53:51;;;;;;;1.30;1.30;;;;;;;;;;10463900;28;20217;-80
2023/06/02 12:58:52;;;;;;;2.58;1.17;;;;;;;;;;10444365;28;20379;-81
2023/06/02 13:03:55;;;;;;;3.30;0.82;;;;;;;;;;10452637;28;20312;-81
2023/06/02 13:08:56;;;;;;;4.00;0.73;;;;;;;;;;10453059;28;20222;-80
2023/06/02 13:14:00;;;;;;;3.22;0.90;;;;;;;;;;10436036;28;20668;-81
2023/06/02 13:19:01;;;;;;;1.10;1.00;;;;;;;;;;10462037;28;20248;-82
2023/06/02 13:24:03;;;;;;;1.17;0.70;;;;;;;;;;10463663;28;20214;-81
2023/06/02 13:29:04;;;;;;;2.90;0.73;;;;;;;;;;10466165;28;20633;-81
2023/06/02 13:34:05;;;;;;;3.05;0.70;;;;;;;;;;10431376;28;20227;-80
2023/06/02 13:39:07;;;;;;;3.65;0.93;;;;;;;;;;10439130;28;20230;-81
2023/06/02 13:44:11;;;;;;;0.90;0.52;;;;;;;;;;10444650;28;20214;-82
2023/06/02 13:49:16;;;;;;;2.28;0.73;;;;;;;;;;10430359;28;20229;-82
2023/06/02 13:54:18;;;;;;;1.27;0.70;;;;;;;;;;10435234;28;20302;-81
2023/06/02 13:59:19;;;;;;;0.90;0.90;;;;;;;;;;10456665;28;20838;-82
2023/06/02 14:04:20;;;;;;;0.73;0.47;;;;;;;;;;10437114;28;20680;-83
2023/06/02 14:09:21;;;;;;;1.08;0.65;;;;;;;;;;10464852;28;20765;-80
2023/06/02 14:14:23;;;;;;;0.82;0.50;;;;;;;;;;10466183;28;20221;-80
2023/06/02 14:19:24;;;;;;;1.13;0.40;;;;;;;;;;10464013;28;20225;-80
2023/06/02 14:24:25;;;;;;;1.92;0.52;;;;;;;;;;10447997;28;20225;-82
2023/06/02 14:29:26;;;;;;;0.68;0.60;;;;;;;;;;10419853;28;20313;-80
2023/06/02 14:34:27;;;;;;;0.30;0.30;;;;;;;;;;10472244;28;20314;-80
2023/06/02 14:39:28;;;;;;;0.30;0.30;;;;;;;;;;10465009;28;20211;-82
2023/06/02 14:44:30;;;;;;;1.65;0.40;;;;;;;;;;10440653;28;20210;-81
2023/06/02 14:49:31;;;;;;;1.75;0.43;;;;;;;;;;10460289;28;20317;-80
2023/06/02 14:54:32;;;;;;;0.40;0.40;;;;;;;;;;10458369;28;20220;-79
2023/06/02 14:59:33;;;;;;;1.83;0.47;;;;;;;;;;10462371;28;20217;-81
2023/06/02 15:04:34;;;;;;;0.40;0.40;;;;;;;;;;10435732;28;20209;-83
2023/06/02 15:09:35;;;;;;;0.43;0.40;;;;;;;;;;10460394;28;20929;-82
2023/06/02 15:14:36;;;;;;;0.77;0.35;;;;;;;;;;10451138;28;20268;-81
2023/06/02 15:19:37;;;;;;;1.35;0.40;;;;;;;;;;10459954;28;20241;-82
2023/06/02 15:24:38;;;;;;;0.30;0.30;;;;;;;;;;10435841;28;20210;-84
2023/06/02 15:29:39;;;;;;;0.40;0.40;;;;;;;;;;10464004;28;20259;-84
2023/06/02 15:34:41;;;;;;;0.40;0.40;;;;;;;;;;10467744;28;20688;-85
2023/06/02 15:39:41;;;;;;;1.33;0.30;;;;;;;;;;10468903;28;20241;-84
2023/06/02 15:44:43;;;;;;;0.60;0.40;;;;;;;;;;10466102;28;20269;-84
2023/06/02 15:49:44;;;;;;;1.08;0.40;;;;;;;;;;10462007;28;20225;-82
2023/06/02 15:54:45;;;;;;;0.20;0.20;;;;;;;;;;10459436;28;20824;-82
2023/06/02 15:59:46;;;;;;;0.40;0.40;;;;;;;;;;10475989;28;20242;-84
2023/06/02 16:04:48;;;;;;;1.05;0.35;;;;;;;;;;10458821;28;20268;-85
2023/06/02 16:09:49;;;;;;;0.30;0.30;;;;;;;;;;10448649;28;20234;-84
2023/06/02 16:14:50;;;;;;;0.30;0.30;;;;;;;;;;10448581;28;20318;-84
2023/06/02 16:19:51;;;;;;;0.30;0.30;;;;;;;;;;10437803;28;20409;-85
2023/06/02 16:24:54;;;;;;;1.65;0.30;;;;;;;;;;10451306;28;20381;-85
2023/06/02 16:29:56;;;;;;;0.93;0.30;;;;;;;;;;10448281;28;20214;-86
2023/06/02 16:34:57;;;;;;;0.32;0.30;;;;;;;;;;10485727;28;20217;-84
2023/06/02 16:39:58;;;;;;;0.40;0.40;;;;;;;;;;10457496;28;20224;-82
2023/06/02 16:44:59;;;;;;;1.05;0.70;;;;;;;;;;10446177;28;20367;-85
2023/06/02 16:50:00;;;;;;;2.03;0.60;;;;;;;;;;10440687;28;20249;-83
2023/06/02 16:55:01;;;;;;;1.85;0.30;;;;;;;;;;10423483;28;20219;-84
2023/06/02 17:00:02;;;;;;;0.25;0.25;;;;;;;;;;10425676;28;20198;-82
2023/06/02 17:05:04;;;;;;;0.20;0.20;;;;;;;;;;10431837;28;20679;-82
2023/06/02 17:10:05;;;;;;;0.20;0.20;;;;;;;;;;10440987;28;20202;-82
2023/06/02 17:15:08;;;;;;;0.20;0.20;;;;;;;;;;10409323;28;20223;-82
2023/06/02 17:20:09;;;;;;;0.47;0.28;;;;;;;;;;10420811;28;20195;-81
2023/06/02 17:25:11;;;;;;;0.20;0.20;;;;;;;;;;10384218;28;20186;-79
2023/06/02 17:30:12;;;;;;;0.20;0.20;;;;;;;;;;10425729;28;20684;-78
2023/06/02 17:35:13;;;;;;;0.17;0.17;;;;;;;;;;10398747;28;20276;-80
2023/06/02 17:40:14;;;;;;;0.70;0.10;;;;;;;;;;10387902;28;20238;-80
2023/06/02 17:45:15;;;;;;;0.10;0.10;;;;;;;;;;10427080;28;20199;-81
2023/06/02 17:50:16;;;;;;;0.15;0.15;;;;;;;;;;10443880;28;20585;-82
2023/06/02 17:55:17;;;;;;;0.20;0.20;;;;;;;;;;10470719;28;20230;-82
2023/06/02 18:00:19;;;;;;;0.52;0.20;;;;;;;;;;10471512;28;20236;-83
2023/06/02 18:05:20;;;;;;;0.10;0.10;;;;;;;;;;10482594;28;20190;-81
2023/06/02 18:10:21;;;;;;;0.30;0.20;;;;;;;;;;10452952;28;20210;-82
2023/06/02 18:15:22;;;;;;;0.20;0.20;;;;;;;;;;10470545;28;20244;-81
2023/06/02 18:20:23;;;;;;;1.48;0.10;;;;;;;;;;10460891;28;20699;-81
2023/06/02 18:25:24;;;;;;;4.47;0.20;;;;;;;;;;10462457;28;20301;-81
2023/06/02 18:30:25;;;;;;;0.28;0.20;;;;;;;;;;10454684;28;21948;-82
2023/06/02 18:35:28;;;;;;;2.83;0.20;;;;;;;;;;10462681;28;20222;-82
2023/06/02 18:40:29;;;;;;;2.28;0.20;;;;;;;;;;10452725;28;20223;-80
2023/06/02 18:45:30;;;;;;;1.08;0.20;;;;;;;;;;10479177;28;20304;-79
2023/06/02 18:50:31;;;;;;;2.63;0.17;;;;;;;;;;10427742;28;20233;-81
2023/06/02 18:55:32;;;;;;;1.08;0.20;;;;;;;;;;10443127;28;20812;-79
2023/06/02 19:00:34;;;;;;;1.35;0.10;;;;;;;;;;10437052;28;20233;-80
2023/06/02 19:05:35;;;;;;;0.77;0.20;;;;;;;;;;10455889;28;20218;-80
2023/06/02 19:10:36;;;;;;;0.47;0.10;;;;;;;;;;10442195;28;20221;-80
2023/06/02 19:15:38;;;;;;;0.15;0.10;;;;;;;;;;10450824;28;20255;-82
2023/06/02 19:20:39;;;;;;;0.20;0.20;;;;;;;;;;10435435;28;20213;-80
2023/06/02 19:25:40;;;;;;;1.02;0.40;;;;;;;;;;10446743;28;20816;-81
2023/06/02 19:30:41;;;;;;;0.65;0.20;;;;;;;;;;10433439;28;21088;-80
2023/06/02 19:35:42;;;;;;;0.10;0.10;;;;;;;;;;10433826;28;20225;-79
2023/06/02 19:40:43;;;;;;;0.30;0.30;;;;;;;;;;10458255;28;20591;-79
2023/06/02 19:45:44;;;;;;;0.10;0.10;;;;;;;;;;10434215;28;20218;-79
2023/06/02 19:50:47;;;;;;;4.95;0.20;;;;;;;;;;10457300;28;20622;-80
2023/06/02 19:55:48;;;;;;;0.57;0.20;;;;;;;;;;10447653;28;20228;-78
2023/06/02 20:00:49;;;;;;;1.55;0.20;;;;;;;;;;10448833;28;20706;-79
2023/06/02 20:05:50;;;;;;;4.57;0.35;;;;;;;;;;10420367;28;20686;-79
2023/06/02 20:10:52;;;;;;;0.10;0.10;;;;;;;;;;10443352;28;20330;-79
2023/06/02 20:15:55;;;;;;;0.20;0.20;;;;;;;;;;10431993;28;20229;-79
2023/06/02 20:20:56;;;;;;;1.88;0.30;;;;;;;;;;10442352;28;20806;-78
2023/06/02 20:25:57;;;;;;;0.30;0.28;;;;;;;;;;10423139;28;20218;-78
2023/06/02 20:30:58;;;;;;;1.75;0.32;;;;;;;;;;10466912;28;20568;-76
2023/06/02 20:36:00;;;;;;;1.17;0.20;;;;;;;;;;10472545;28;20723;-78
2023/06/02 20:41:01;;;;;;;0.47;0.20;;;;;;;;;;10483804;28;20214;-79
2023/06/02 20:46:02;;;;;;;0.32;0.30;;;;;;;;;;10470032;28;20210;-77
2023/06/02 20:51:03;;;;;;;0.20;0.20;;;;;;;;;;10477532;28;20240;-79
2023/06/02 20:56:04;;;;;;;0.17;0.17;;;;;;;;;;10482135;28;20656;-77
2023/06/02 21:01:06;;;;;;;0.20;0.20;;;;;;;;;;10457318;28;20659;-79
2023/06/02 21:06:07;;;;;;;0.20;0.20;;;;;;;;;;10488441;28;20218;-79
2023/06/02 21:11:08;;;;;;;0.55;0.20;;;;;;;;;;10459638;28;20283;-77
2023/06/02 21:16:09;;;;;;;0.20;0.20;;;;;;;;;;10479369;28;20555;-77
2023/06/02 21:21:10;;;;;;;0.40;0.20;;;;;;;;;;10454935;28;20738;-77
2023/06/02 21:26:12;;;;;;;3.30;0.32;;;;;;;;;;10464967;28;20206;-76
2023/06/02 21:31:12;;;;;;;2.05;0.30;;;;;;;;;;10458068;28;20210;-77
2023/06/02 21:36:14;;;;;;;0.10;0.10;;;;;;;;;;10458950;28;20226;-79
2023/06/02 21:41:15;;;;;;;4.72;0.43;;;;;;;;;;10461155;28;20218;-75
2023/06/02 21:46:16;;;;;;;0.30;0.30;;;;;;;;;;10464814;28;20356;-76
2023/06/02 21:51:17;;;;;;;0.20;0.20;;;;;;;;;;10451590;28;20296;-76
2023/06/02 21:56:18;;;;;;;0.25;0.25;;;;;;;;;;10421601;28;20226;-75
2023/06/02 22:01:19;;;;;;;2.03;0.30;;;;;;;;;;10434681;28;20594;-77
2023/06/02 22:06:20;;;;;;;2.08;0.35;;;;;;;;;;10441807;28;20302;-77
2023/06/02 22:11:25;;;;;;;0.32;0.28;;;;;;;;;;10438457;28;20227;-74
2023/06/02 22:16:26;;;;;;;0.25;0.20;;;;;;;;;;10437970;28;20284;-76
2023/06/02 22:21:27;;;;;;;4.38;0.40;;;;;;;;;;10437188;28;20219;-77
2023/06/02 22:26:28;;;;;;;2.95;0.40;;;;;;;;;;10420073;28;20223;-76
2023/06/02 22:31:30;;;;;;;1.70;0.20;;;;;;;;;;10415495;28;20211;-77
2023/06/02 22:36:33;;;;;;;0.30;0.30;;;;;;;;;;10422190;28;20218;-77
2023/06/02 22:41:34;;;;;;;0.40;0.38;;;;;;;;;;10431659;28;20230;-77
2023/06/02 22:46:35;;;;;;;0.40;0.30;;;;;;;;;;10419917;28;20256;-77
2023/06/02 22:51:38;;;;;;;0.30;0.30;;;;;;;;;;10462220;28;20225;-78
2023/06/02 22:56:39;;;;;;;1.25;0.22;;;;;;;;;;10480690;28;20213;-77
2023/06/02 23:01:40;;;;;;;0.20;0.20;;;;;;;;;;10455652;28;20218;-77
2023/06/02 23:06:41;;;;;;;1.13;0.30;;;;;;;;;;10489940;28;20694;-78
2023/06/02 23:11:42;;;;;;;1.65;0.30;;;;;;;;;;10476088;28;20221;-77
2023/06/02 23:16:44;;;;;;;0.20;0.20;;;;;;;;;;10488777;28;20317;-76
2023/06/02 23:21:46;;;;;;;4.15;0.30;;;;;;;;;;10475549;28;20587;-77
2023/06/02 23:26:46;;;;;;;1.10;0.30;;;;;;;;;;10489572;28;20218;-76
2023/06/02 23:31:51;;;;;;;0.40;0.40;;;;;;;;;;10475396;28;20612;-77
2023/06/02 23:36:52;;;;;;;2.55;0.40;;;;;;;;;;10469324;28;20245;-76
2023/06/02 23:41:53;;;;;;;0.32;0.20;;;;;;;;;;10470519;28;20215;-76
2023/06/02 23:46:55;;;;;;;0.22;0.22;;;;;;;;;;10465139;28;20622;-77
2023/06/02 23:51:56;;;;;;;0.50;0.25;;;;;;;;;;10472139;28;20226;-77
2023/06/02 23:56:57;;;;;;;0.30;0.30;;;;;;;;;;10473529;28;20267;-78
